createdAt,value
2023-10-29T00:01:31.233Z,4.22
2023-10-29T00:03:58.176Z,4.28
2023-10-29T00:06:25.270Z,4.88
2023-10-29T00:08:52.090Z,4.10
2023-10-29T00:11:18.944Z,3.97
2023-10-29T00:13:45.728Z,3.60
2023-10-29T00:16:12.827Z,3.67
2023-10-29T00:18:40.327Z,4.50
2023-10-29T00:21:07.414Z,4.38
2023-10-29T00:23:34.860Z,4.65
2023-10-29T00:26:02.206Z,4.28
2023-10-29T00:28:29.047Z,4.57
2023-10-29T00:30:56.066Z,4.60
2023-10-29T00:33:22.843Z,4.40
2023-10-29T00:35:49.730Z,4.55
2023-10-29T00:38:16.503Z,4.22
2023-10-29T00:40:43.241Z,4.13
2023-10-29T00:43:16.991Z,3.80
2023-10-29T00:45:46.029Z,3.88
2023-10-29T00:48:13.059Z,3.80
2023-10-29T00:50:40.886Z,3.85
2023-10-29T00:53:07.875Z,3.80
2023-10-29T00:55:36.129Z,4.32
2023-10-29T00:58:04.020Z,3.45
2023-10-29T01:00:30.739Z,3.78
2023-10-29T01:02:57.678Z,3.95
2023-10-29T01:05:24.694Z,4.25
2023-10-29T01:07:52.440Z,3.40
2023-10-29T01:10:19.234Z,3.35
2023-10-29T01:12:46.630Z,3.38
2023-10-29T01:15:13.513Z,2.97
2023-10-29T01:17:40.700Z,3.08
2023-10-29T01:20:07.925Z,3.33
2023-10-29T01:22:37.365Z,3.15
2023-10-29T01:25:08.373Z,2.95
2023-10-29T01:27:35.127Z,3.20
2023-10-29T01:30:02.043Z,3.83
2023-10-29T01:32:28.859Z,2.92
2023-10-29T01:34:56.004Z,3.05
2023-10-29T01:37:23.728Z,2.97
2023-10-29T01:39:50.643Z,2.78
2023-10-29T01:42:17.466Z,2.90
2023-10-29T01:44:44.280Z,2.85
2023-10-29T01:47:10.983Z,2.53
2023-10-29T01:49:37.727Z,2.97
2023-10-29T01:52:05.242Z,3.20
2023-10-29T01:54:31.944Z,2.67
2023-10-29T01:56:58.669Z,2.60
2023-10-29T01:59:25.631Z,2.63
2023-10-29T02:01:52.902Z,2.53
2023-10-29T02:04:21.494Z,2.33
2023-10-29T02:06:48.336Z,2.30
2023-10-29T02:09:15.040Z,2.42
2023-10-29T02:11:41.845Z,2.13
2023-10-29T02:14:10.454Z,2.42
2023-10-29T02:16:37.194Z,1.85
2023-10-29T02:19:04.591Z,2.05
2023-10-29T02:21:31.774Z,2.20
2023-10-29T02:24:02.046Z,2.45
2023-10-29T02:26:29.235Z,1.80
2023-10-29T02:28:55.970Z,1.90
2023-10-29T02:31:22.995Z,2.47
2023-10-29T02:33:51.274Z,1.80
2023-10-29T02:36:17.998Z,2.30
2023-10-29T02:38:44.903Z,1.73
2023-10-29T02:41:13.605Z,1.77
2023-10-29T02:43:41.446Z,1.63
2023-10-29T02:46:08.389Z,1.85
2023-10-29T02:48:35.418Z,1.92
2023-10-29T02:51:02.524Z,1.73
2023-10-29T02:53:29.932Z,1.83
2023-10-29T02:56:01.049Z,1.50
2023-10-29T02:58:27.977Z,2.08
2023-10-29T03:00:54.939Z,1.42
2023-10-29T03:03:22.102Z,1.30
2023-10-29T03:05:56.729Z,1.73
2023-10-29T03:08:24.761Z,1.70
2023-10-29T03:10:52.099Z,1.38
2023-10-29T03:13:19.042Z,1.40
2023-10-29T03:15:46.238Z,1.98
2023-10-29T03:18:14.519Z,1.58
2023-10-29T03:20:41.939Z,1.55
2023-10-29T03:23:09.100Z,1.75
2023-10-29T03:25:36.127Z,1.40
2023-10-29T03:28:02.946Z,1.42
2023-10-29T03:30:29.668Z,1.45
2023-10-29T03:32:56.453Z,1.80
2023-10-29T03:35:23.244Z,1.88
2023-10-29T03:37:49.955Z,1.40
2023-10-29T03:40:16.724Z,1.60
2023-10-29T03:42:43.446Z,1.23
2023-10-29T03:45:10.289Z,1.40
2023-10-29T03:47:37.143Z,1.25
2023-10-29T03:50:04.241Z,1.30
2023-10-29T03:52:30.924Z,1.60
2023-10-29T03:54:57.647Z,1.30
2023-10-29T03:57:24.424Z,1.23
2023-10-29T03:59:52.643Z,1.58
2023-10-29T04:02:19.344Z,1.30
2023-10-29T04:04:57.414Z,1.60
2023-10-29T04:09:56.823Z,1.30
2023-10-29T04:12:23.741Z,1.17
2023-10-29T04:14:50.580Z,1.30
2023-10-29T04:17:18.101Z,1.50
2023-10-29T04:19:44.826Z,1.40
2023-10-29T04:22:11.538Z,1.30
2023-10-29T04:24:38.272Z,1.10
2023-10-29T04:27:05.719Z,1.38
2023-10-29T04:29:32.428Z,1.50
2023-10-29T04:31:59.160Z,1.25
2023-10-29T04:34:25.901Z,1.30
2023-10-29T04:36:52.781Z,1.25
2023-10-29T04:39:20.588Z,1.00
2023-10-29T04:41:50.421Z,1.20
2023-10-29T04:44:17.395Z,1.08
2023-10-29T04:46:44.072Z,1.27
2023-10-29T04:49:10.749Z,1.10
2023-10-29T04:51:37.453Z,0.95
2023-10-29T04:54:04.518Z,1.00
2023-10-29T04:56:33.313Z,1.08
2023-10-29T04:59:01.035Z,1.15
2023-10-29T05:01:27.745Z,1.42
2023-10-29T05:03:57.348Z,1.60
2023-10-29T05:06:24.235Z,1.35
2023-10-29T05:08:51.250Z,1.48
2023-10-29T05:11:18.186Z,1.23
2023-10-29T05:13:44.934Z,1.10
2023-10-29T05:16:12.664Z,1.17
2023-10-29T05:18:39.562Z,1.08
2023-10-29T05:21:06.772Z,1.38
2023-10-29T05:23:33.575Z,1.10
2023-10-29T05:26:00.363Z,1.10
2023-10-29T05:28:27.994Z,0.90
2023-10-29T05:30:54.861Z,1.20
2023-10-29T05:33:22.012Z,1.17
2023-10-29T05:35:49.082Z,1.20
2023-10-29T05:38:16.002Z,0.98
2023-10-29T05:40:43.264Z,0.88
2023-10-29T05:43:10.162Z,1.20
2023-10-29T05:45:36.912Z,0.90
2023-10-29T05:48:03.826Z,1.15
2023-10-29T05:50:30.764Z,0.80
2023-10-29T05:52:57.547Z,0.85
2023-10-29T05:55:24.388Z,0.95
2023-10-29T05:57:51.208Z,0.82
2023-10-29T06:00:18.454Z,0.80
2023-10-29T06:02:45.311Z,0.85
2023-10-29T06:05:12.106Z,0.70
2023-10-29T06:07:44.128Z,1.00
2023-10-29T06:10:14.911Z,1.13
2023-10-29T06:12:42.852Z,0.93
2023-10-29T06:15:10.908Z,1.20
2023-10-29T06:17:38.042Z,1.00
2023-10-29T06:20:06.282Z,1.70
2023-10-29T06:22:33.583Z,0.90
2023-10-29T06:25:00.449Z,1.38
2023-10-29T06:27:27.214Z,0.95
2023-10-29T06:29:54.086Z,1.00
2023-10-29T06:32:21.281Z,1.23
2023-10-29T06:34:48.519Z,1.20
2023-10-29T06:37:15.420Z,1.48
2023-10-29T06:39:42.343Z,1.20
2023-10-29T06:42:09.560Z,0.98
2023-10-29T06:44:36.338Z,1.52
2023-10-29T06:47:07.141Z,1.20
2023-10-29T06:49:33.993Z,1.13
2023-10-29T06:52:00.792Z,0.70
2023-10-29T06:54:27.554Z,0.90
2023-10-29T06:56:54.430Z,0.93
2023-10-29T06:59:21.114Z,0.98
2023-10-29T07:01:51.449Z,0.90
2023-10-29T07:04:18.339Z,1.23
2023-10-29T07:06:47.971Z,1.02
2023-10-29T07:09:17.772Z,0.93
2023-10-29T07:11:44.650Z,1.00
2023-10-29T07:14:12.452Z,1.10
2023-10-29T07:16:45.120Z,0.98
2023-10-29T07:19:12.588Z,1.60
2023-10-29T07:21:39.549Z,1.10
2023-10-29T07:24:07.405Z,1.20
2023-10-29T07:26:34.714Z,0.90
2023-10-29T07:29:02.579Z,0.90
2023-10-29T07:31:31.598Z,0.88
2023-10-29T07:33:58.467Z,0.80
2023-10-29T07:36:25.316Z,0.90
2023-10-29T07:38:52.266Z,0.82
2023-10-29T07:41:22.794Z,0.60
2023-10-29T07:43:50.714Z,0.98
2023-10-29T07:46:17.491Z,0.90
2023-10-29T07:48:44.232Z,0.75
2023-10-29T07:51:11.694Z,1.00
2023-10-29T07:53:38.681Z,1.00
2023-10-29T07:56:08.317Z,0.80
2023-10-29T07:58:34.990Z,1.05
2023-10-29T08:01:01.877Z,1.13
2023-10-29T08:03:28.866Z,1.00
2023-10-29T08:05:55.748Z,1.10
2023-10-29T08:08:22.483Z,1.08
2023-10-29T08:10:49.185Z,0.98
2023-10-29T08:13:15.989Z,0.75
2023-10-29T08:15:43.837Z,1.02
2023-10-29T08:18:10.901Z,0.93
2023-10-29T08:20:38.096Z,1.45
2023-10-29T08:23:04.943Z,1.13
2023-10-29T08:25:32.250Z,0.95
2023-10-29T08:27:58.914Z,1.42
2023-10-29T08:30:25.605Z,0.95
2023-10-29T08:32:52.474Z,0.82
2023-10-29T08:35:19.307Z,1.65
2023-10-29T08:37:46.717Z,1.48
2023-10-29T08:40:14.344Z,1.00
2023-10-29T08:42:41.132Z,1.10
2023-10-29T08:45:08.263Z,1.30
2023-10-29T08:47:35.292Z,1.73
2023-10-29T08:50:02.207Z,1.30
2023-10-29T08:52:29.037Z,1.38
2023-10-29T08:54:55.763Z,1.30
2023-10-29T08:57:22.682Z,1.27
2023-10-29T08:59:49.611Z,1.25
2023-10-29T09:02:18.743Z,1.60
2023-10-29T09:04:45.551Z,1.77
2023-10-29T09:07:12.369Z,1.42
2023-10-29T09:09:39.069Z,1.52
2023-10-29T09:12:05.941Z,1.45
2023-10-29T09:14:32.796Z,1.20
2023-10-29T09:16:59.618Z,1.67
2023-10-29T09:19:28.746Z,1.52
2023-10-29T09:21:55.669Z,2.15
2023-10-29T09:24:22.860Z,1.45
2023-10-29T09:26:49.624Z,1.73
2023-10-29T09:29:17.400Z,1.92
2023-10-29T09:31:44.168Z,1.30
2023-10-29T09:34:11.694Z,1.50
2023-10-29T09:36:39.366Z,1.75
2023-10-29T09:39:06.526Z,1.20
2023-10-29T09:41:34.290Z,1.80
2023-10-29T09:44:02.981Z,1.60
2023-10-29T09:46:31.736Z,2.10
2023-10-29T09:48:59.499Z,1.98
2023-10-29T09:51:26.519Z,1.73
2023-10-29T09:53:55.166Z,1.60
2023-10-29T09:56:21.977Z,1.23
2023-10-29T09:58:48.824Z,1.42
2023-10-29T10:01:16.326Z,1.33
2023-10-29T10:03:43.169Z,1.52
2023-10-29T10:06:12.266Z,1.33
2023-10-29T10:08:39.028Z,1.65
2023-10-29T10:11:06.462Z,2.55
2023-10-29T10:13:42.294Z,1.65
2023-10-29T10:16:11.696Z,1.65
2023-10-29T10:18:51.977Z,2.47
2023-10-29T10:21:21.421Z,1.75
2023-10-29T10:23:56.470Z,1.88
2023-10-29T10:26:36.566Z,1.40
2023-10-29T10:29:08.270Z,1.45
2023-10-29T10:31:36.672Z,1.70
2023-10-29T10:34:12.667Z,1.35
2023-10-29T10:36:39.486Z,1.55
2023-10-29T10:39:06.473Z,1.67
2023-10-29T10:41:43.070Z,1.60
2023-10-29T10:44:20.484Z,1.67
2023-10-29T10:46:53.967Z,1.42
2023-10-29T10:49:22.358Z,1.50
2023-10-29T10:51:50.608Z,1.58
2023-10-29T10:54:20.680Z,1.70
2023-10-29T10:56:48.787Z,2.15
2023-10-29T10:59:16.181Z,1.45
2023-10-29T11:01:42.873Z,1.67
2023-10-29T11:04:11.478Z,1.67
2023-10-29T11:06:39.800Z,1.77
2023-10-29T11:09:13.758Z,1.50
2023-10-29T11:11:55.930Z,1.77
2023-10-29T11:14:25.224Z,1.42
2023-10-29T11:16:57.178Z,1.58
2023-10-29T11:19:37.142Z,2.10
2023-10-29T11:22:23.629Z,1.15
2023-10-29T11:25:09.427Z,1.40
2023-10-29T11:27:45.355Z,1.05
2023-10-29T11:30:17.715Z,1.20
2023-10-29T11:32:46.068Z,1.63
2023-10-29T11:35:15.956Z,1.45
2023-10-29T11:37:43.567Z,1.17
2023-10-29T11:40:30.660Z,1.80
2023-10-29T11:43:14.358Z,1.70
2023-10-29T11:45:41.872Z,1.63
2023-10-29T11:48:10.091Z,1.92
2023-10-29T11:50:41.732Z,1.35
2023-10-29T11:53:24.579Z,1.70
2023-10-29T11:55:52.911Z,1.40
2023-10-29T11:58:25.694Z,1.35
2023-10-29T12:00:52.869Z,1.17
2023-10-29T12:03:23.621Z,1.30
2023-10-29T12:05:51.559Z,1.40
2023-10-29T12:08:19.124Z,1.58
2023-10-29T12:10:50.292Z,1.73
2023-10-29T12:13:20.381Z,1.92
2023-10-29T12:15:58.369Z,1.92
2023-10-29T12:18:26.471Z,1.27
2023-10-29T12:21:10.661Z,1.33
2023-10-29T12:23:38.110Z,1.58
2023-10-29T12:26:07.309Z,1.52
2023-10-29T12:28:36.633Z,1.58
2023-10-29T12:31:06.425Z,2.40
2023-10-29T12:33:35.880Z,1.83
2023-10-29T12:36:06.303Z,1.60
2023-10-29T12:38:39.316Z,1.52
2023-10-29T12:41:14.850Z,1.52
2023-10-29T12:43:47.529Z,1.67
2023-10-29T12:46:16.356Z,2.03
2023-10-29T12:48:59.372Z,2.30
2023-10-29T12:51:36.572Z,1.50
2023-10-29T12:54:16.551Z,1.70
2023-10-29T12:56:53.661Z,1.60
2023-10-29T12:59:28.617Z,1.10
2023-10-29T13:01:57.758Z,1.90
2023-10-29T13:04:26.082Z,1.70
2023-10-29T13:06:55.051Z,2.00
2023-10-29T13:09:23.523Z,2.20
2023-10-29T13:11:53.042Z,1.67
2023-10-29T13:14:20.759Z,1.63
2023-10-29T13:16:47.717Z,1.77
2023-10-29T13:19:14.538Z,1.65
2023-10-29T13:21:41.950Z,1.85
2023-10-29T13:24:09.441Z,2.08
2023-10-29T13:26:36.864Z,1.42
2023-10-29T13:29:03.728Z,2.05
2023-10-29T13:31:30.438Z,1.67
2023-10-29T13:34:00.269Z,2.03
2023-10-29T13:36:29.203Z,1.98
2023-10-29T13:39:02.507Z,1.30
2023-10-29T13:41:29.452Z,1.95
2023-10-29T13:43:56.177Z,1.85
2023-10-29T13:46:23.913Z,1.80
2023-10-29T13:48:54.780Z,1.90
2023-10-29T13:51:22.338Z,1.73
2023-10-29T13:53:49.920Z,1.60
2023-10-29T13:56:17.271Z,1.60
2023-10-29T13:58:44.414Z,1.35
2023-10-29T14:01:22.381Z,2.28
2023-10-29T14:03:50.708Z,1.95
2023-10-29T14:06:20.500Z,1.75
2023-10-29T14:08:47.385Z,1.52
2023-10-29T14:11:15.780Z,1.73
2023-10-29T14:13:45.779Z,1.63
2023-10-29T14:16:13.823Z,1.52
2023-10-29T14:18:42.147Z,1.85
2023-10-29T14:21:09.285Z,1.52
2023-10-29T14:23:36.246Z,1.40
2023-10-29T14:26:03.086Z,1.65
2023-10-29T14:28:29.859Z,1.30
2023-10-29T14:30:57.249Z,2.03
2023-10-29T14:33:24.250Z,1.80
2023-10-29T14:36:00.236Z,1.15
2023-10-29T14:38:28.485Z,1.58
2023-10-29T14:40:56.956Z,1.42
2023-10-29T14:43:24.220Z,1.90
2023-10-29T14:45:52.540Z,1.67
2023-10-29T14:48:20.298Z,1.33
2023-10-29T14:50:48.016Z,1.17
2023-10-29T14:53:14.967Z,1.52
2023-10-29T14:55:47.143Z,1.20
2023-10-29T14:58:14.782Z,1.27
2023-10-29T15:00:45.507Z,1.65
2023-10-29T15:03:13.232Z,1.58
2023-10-29T15:05:40.972Z,1.33
2023-10-29T15:08:08.136Z,1.20
2023-10-29T15:10:35.094Z,1.23
2023-10-29T15:13:02.060Z,1.15
2023-10-29T15:15:30.627Z,1.92
2023-10-29T15:17:58.517Z,1.10
2023-10-29T15:20:27.461Z,1.10
2023-10-29T15:22:54.529Z,1.40
2023-10-29T15:25:21.198Z,1.38
2023-10-29T15:27:48.027Z,1.30
2023-10-29T15:30:15.007Z,1.05
2023-10-29T15:32:41.831Z,1.30
2023-10-29T15:35:09.293Z,1.45
2023-10-29T15:37:36.119Z,1.20
2023-10-29T15:40:03.803Z,1.15
2023-10-29T15:42:30.639Z,1.15
2023-10-29T15:44:57.526Z,1.52
2023-10-29T15:47:26.217Z,1.30
2023-10-29T15:49:54.371Z,1.30
2023-10-29T15:52:21.665Z,1.42
2023-10-29T15:54:49.030Z,1.67
2023-10-29T15:57:16.413Z,1.27
2023-10-29T15:59:43.541Z,1.67
2023-10-29T16:02:10.414Z,1.77
2023-10-29T16:04:38.780Z,1.48
2023-10-29T16:07:06.050Z,1.60
2023-10-29T16:09:33.468Z,1.58
2023-10-29T16:12:06.091Z,1.52
2023-10-29T16:14:37.056Z,1.75
2023-10-29T16:17:04.396Z,1.23
2023-10-29T16:19:31.723Z,1.20
2023-10-29T16:21:58.564Z,1.65
2023-10-29T16:24:25.632Z,1.20
2023-10-29T16:26:52.473Z,1.50
2023-10-29T16:29:19.306Z,1.98
2023-10-29T16:31:46.172Z,1.60
2023-10-29T16:34:13.025Z,1.33
2023-10-29T16:36:39.734Z,1.52
2023-10-29T16:39:07.118Z,1.60
2023-10-29T16:41:34.317Z,1.85
2023-10-29T16:44:02.570Z,1.58
2023-10-29T16:46:32.956Z,1.50
2023-10-29T16:49:02.342Z,1.65
2023-10-29T16:51:29.757Z,1.92
2023-10-29T16:53:56.612Z,1.50
2023-10-29T16:56:23.559Z,1.52
2023-10-29T16:58:50.366Z,1.00
2023-10-29T17:01:17.184Z,1.45
2023-10-29T17:03:46.094Z,1.52
2023-10-29T17:06:13.069Z,1.88
2023-10-29T17:08:39.860Z,2.30
2023-10-29T17:11:06.538Z,1.60
2023-10-29T17:13:33.314Z,1.50
2023-10-29T17:16:02.860Z,1.13
2023-10-29T17:18:29.974Z,1.33
2023-10-29T17:20:58.178Z,1.50
2023-10-29T17:23:26.583Z,1.25
2023-10-29T17:25:53.474Z,1.33
2023-10-29T17:28:20.458Z,1.20
2023-10-29T17:30:47.868Z,1.60
2023-10-29T17:33:14.671Z,1.40
2023-10-29T17:35:41.566Z,1.60
2023-10-29T17:38:08.445Z,1.38
2023-10-29T17:40:36.747Z,1.77
2023-10-29T17:43:03.691Z,1.30
2023-10-29T17:45:36.574Z,1.50
2023-10-29T17:48:04.250Z,1.40
2023-10-29T17:50:31.116Z,1.50
2023-10-29T17:52:57.859Z,1.30
2023-10-29T17:55:24.733Z,1.17
2023-10-29T17:57:51.397Z,1.05
2023-10-29T18:00:18.369Z,1.65
2023-10-29T18:02:45.260Z,1.30
2023-10-29T18:05:13.827Z,1.23
2023-10-29T18:07:40.732Z,1.20
2023-10-29T18:10:07.790Z,1.27
2023-10-29T18:12:34.552Z,1.10
2023-10-29T18:15:01.340Z,1.23
2023-10-29T18:17:28.344Z,1.15
2023-10-29T18:19:55.107Z,1.50
2023-10-29T18:22:22.728Z,2.10
2023-10-29T18:24:49.806Z,1.75
2023-10-29T18:27:16.957Z,1.65
2023-10-29T18:29:44.367Z,1.40
2023-10-29T18:32:11.230Z,1.15
2023-10-29T18:34:38.691Z,1.00
2023-10-29T18:37:05.625Z,0.80
2023-10-29T18:39:32.431Z,0.90
2023-10-29T18:41:59.724Z,0.65
2023-10-29T18:44:31.342Z,0.57
2023-10-29T18:47:01.646Z,0.90
2023-10-29T18:49:31.144Z,0.70
2023-10-29T18:51:57.848Z,0.80
2023-10-29T18:54:25.207Z,0.60
2023-10-29T18:56:53.478Z,0.93
2023-10-29T18:59:20.981Z,1.10
2023-10-29T19:01:47.926Z,0.60
2023-10-29T19:04:16.187Z,0.90
2023-10-29T19:06:43.485Z,0.95
2023-10-29T19:09:11.660Z,1.10
2023-10-29T19:11:38.727Z,0.82
2023-10-29T19:14:05.791Z,1.10
2023-10-29T19:16:32.695Z,0.98
2023-10-29T19:18:59.618Z,1.00
2023-10-29T19:21:26.574Z,1.10
2023-10-29T19:23:53.553Z,1.35
2023-10-29T19:26:20.266Z,1.10
2023-10-29T19:28:47.305Z,1.20
2023-10-29T19:33:43.705Z,0.98
2023-10-29T19:36:11.230Z,1.10
2023-10-29T19:38:38.241Z,1.20
2023-10-29T19:41:05.056Z,1.17
2023-10-29T19:43:31.856Z,1.05
2023-10-29T19:45:59.799Z,1.52
2023-10-29T19:48:28.318Z,0.95
2023-10-29T19:51:06.182Z,0.70
2023-10-29T19:53:34.500Z,0.82
2023-10-29T19:56:06.288Z,0.90
2023-10-29T19:58:33.214Z,1.48
2023-10-29T20:01:05.323Z,1.30
2023-10-29T20:03:33.368Z,0.98
2023-10-29T20:06:05.592Z,0.80
2023-10-29T20:08:33.299Z,0.80
2023-10-29T20:11:01.120Z,0.63
2023-10-29T20:13:27.781Z,0.70
2023-10-29T20:15:54.864Z,0.98
2023-10-29T20:18:21.665Z,0.80
2023-10-29T20:20:48.403Z,0.82
2023-10-29T20:23:15.167Z,0.65
2023-10-29T20:25:41.976Z,0.80
2023-10-29T20:28:08.742Z,0.75
2023-10-29T20:30:35.538Z,0.80
2023-10-29T20:33:02.640Z,0.60
2023-10-29T20:35:29.398Z,1.00
2023-10-29T20:37:56.598Z,1.38
2023-10-29T20:40:24.686Z,1.05
2023-10-29T20:42:52.483Z,1.52
2023-10-29T20:45:19.449Z,0.80
2023-10-29T20:47:46.108Z,0.80
2023-10-29T20:50:14.015Z,1.05
2023-10-29T20:52:41.058Z,1.17
2023-10-29T20:55:08.199Z,0.93
2023-10-29T20:57:35.148Z,1.00
2023-10-29T21:00:05.997Z,1.20
2023-10-29T21:02:33.301Z,0.90
2023-10-29T21:05:00.271Z,1.00
2023-10-29T21:07:27.279Z,1.33
2023-10-29T21:09:54.066Z,1.13
2023-10-29T21:12:20.866Z,2.20
2023-10-29T21:14:47.687Z,1.27
2023-10-29T21:17:14.443Z,1.15
2023-10-29T21:19:41.231Z,1.20
2023-10-29T21:22:08.066Z,0.98
2023-10-29T21:24:35.077Z,1.08
2023-10-29T21:27:01.961Z,1.60
2023-10-29T21:29:29.893Z,0.98
2023-10-29T21:31:56.652Z,1.48
2023-10-29T21:34:26.968Z,1.23
2023-10-29T21:36:54.302Z,1.10
2023-10-29T21:39:21.368Z,1.40
2023-10-29T21:41:48.202Z,2.03
2023-10-29T21:44:15.233Z,1.42
2023-10-29T21:46:42.038Z,1.65
2023-10-29T21:49:08.913Z,1.25
2023-10-29T21:51:35.638Z,1.50
2023-10-29T21:54:02.451Z,1.65
2023-10-29T21:56:29.189Z,1.60
2023-10-29T21:58:55.952Z,1.10
2023-10-29T22:01:23.899Z,2.03
2023-10-29T22:03:51.203Z,1.42
2023-10-29T22:06:18.449Z,1.60
2023-10-29T22:09:11.229Z,1.58
2023-10-29T22:11:38.288Z,1.48
2023-10-29T22:14:05.238Z,1.20
2023-10-29T22:16:32.074Z,1.42
2023-10-29T22:18:58.895Z,1.05
2023-10-29T22:21:25.633Z,1.38
2023-10-29T22:23:55.720Z,1.50
2023-10-29T22:26:22.511Z,1.45
2023-10-29T22:28:49.290Z,2.08
2023-10-29T22:31:16.792Z,1.45
2023-10-29T22:33:44.739Z,1.00
2023-10-29T22:36:11.504Z,1.40
2023-10-29T22:38:38.414Z,1.77
2023-10-29T22:41:13.027Z,1.45
2023-10-29T22:43:39.751Z,1.10
2023-10-29T22:46:06.818Z,1.13
2023-10-29T22:48:34.167Z,1.25
2023-10-29T22:51:02.705Z,1.10
2023-10-29T22:53:29.608Z,1.50
2023-10-29T22:56:02.740Z,1.58
2023-10-29T22:58:29.660Z,1.17
2023-10-29T23:00:56.639Z,1.65
2023-10-29T23:03:23.566Z,1.30
2023-10-29T23:05:50.522Z,1.20
2023-10-29T23:08:17.598Z,1.42
2023-10-29T23:10:44.368Z,1.73
2023-10-29T23:13:11.139Z,0.85
2023-10-29T23:15:38.476Z,1.20
2023-10-29T23:18:05.868Z,1.67
2023-10-29T23:20:32.773Z,1.20
2023-10-29T23:22:59.952Z,1.17
2023-10-29T23:25:26.678Z,1.40
2023-10-29T23:27:53.439Z,1.42
2023-10-29T23:30:20.235Z,1.40
2023-10-29T23:32:47.246Z,1.30
2023-10-29T23:35:14.279Z,1.27
2023-10-29T23:37:40.948Z,1.20
2023-10-29T23:40:08.358Z,1.10
2023-10-29T23:42:35.222Z,1.30
2023-10-29T23:45:02.602Z,1.77
2023-10-29T23:47:29.810Z,1.30
2023-10-29T23:49:56.849Z,1.75
2023-10-29T23:52:23.766Z,1.83
2023-10-29T23:54:50.493Z,1.38
2023-10-29T23:57:17.299Z,1.38
2023-10-29T23:59:44.183Z,1.77
